首页
METAR-TAF:

METAR-TAF

机场 :

法布拉, 英格兰

纬度: 51-17N, 经度: 000-46W, 海拔: 65米

当前天气观测

该预报发布于22分钟前的10:20 UTC
风速4节,风向东北,在之间变化
温度 18°C
湿度 88%
气压 1014 hPa
能见度10公里或以上
散云层高于900英尺
阴天层高于1300英尺

METAR: EGLF 141020Z 04004KT 350V100 9999 SCT009 OVC013 18/16 Q1014

时间: 11:42 (10:42 UTC)

预报

该预报发布于1小时和37分钟前的09:05 UTC
预报有效从14日的 09点(UTC)到 14日的 18点(UTC)
风速5节,风向
能見度: 6000
多云层高于400英尺
成为
从 14日的 09点(UTC)到 14日的 12点(UTC)
能见度10公里或以上
多云层高于1000英尺
几率 30% :
短暂存在
从 14日的 09点(UTC)到 14日的 18点(UTC)
风速15节,风向多变,有时为25节阵风
能見度: 3000
雷暴, 大雨
成为
从 14日的 12点(UTC)到 14日的 15点(UTC)
散云层高于1600英尺

TAF: EGLF 140905Z 1409/1418 35005KT 6000 BKN004 BECMG 1409/1412 9999 BKN010 PROB30 TEMPO 1409/1418 VRB15G25KT 3000 +TSRA BECMG 1412/1415 SCT016

超过4000个机场的气象观测和天气预报(METAR&TAF报告)。

可查询的气象台以黄色和红色小点在地图上表示。

将鼠标移到小点上方,可查看气象台名称。

然后点击查看天气观测和预报。

如需切换地图:点击带黑十字的绿色按钮放大地图;点击带横线的绿色按钮缩小地图;或者点击绿色箭头查看邻近地区的地图。


METAR-TAF: